VTBDVTUQ

Guest
Details From VTBD - Bangkok Don Mueang Intl
To VTUQ - Nakhon Ratchasima
Flight Number -
Tags generated
Created
Modified
Stats Distance 118 nm / 218 km
Max Altitude 2,100 ft / 640 m
Waypoints 3
Social Downloads 8
Likes 0
Share VATSIM

Download

Looking for another format? Having issues loading an existing format? Contact us
Advertisement - Login to hide

Notes

Basic altitude profile: - Ascent Rate: 2500ft/min - Ascent Speed: 250kts - Cruise Altitude: 35000ft - Cruise Speed: 420kts - Descent Rate: 1500ft/min - Descent Speed: 250kts Options: - Use NATs: yes - Use PACOTS: yes - Use low airways: yes - Use high airways: yes

Route

VTBD KRT VTUQ

ID Type Via Altitude Latitude Longitude Leg Dist Tot Dist Heading (true) Name
O VTBD APT - 0 ft / 0 m 13.91260˚ 100.60680˚ - 0 nm - Bangkok Don Mueang Intl
KRT VOR - 2,100 ft / 640 m 14.91732˚ 102.13981˚ 107 nm 107 nm 56° / 56° KHORAT VOR-DME
O VTUQ APT - 0 ft / 0 m 14.94950˚ 102.31274˚ 10 nm 117 nm 79° / 79° Nakhon Ratchasima

Altitude Profile

Advertisement - Login to hide

VTBD

Details ICAO VTBD (DMK)
Name Bangkok Don Mueang Intl
Region Thailand
Timezone Asia/Bangkok (UTC+7.0)
Stats Elevation 9 ft / 3 m (AMSL)
Location 13.912597° 100.606799°
Runways 2
Magnetic Variation 0.582° W

METAR

VTBD 160530Z 35007KT 270V080 9000 FEW020 31/22 Q1013 NOSIG

Decode

TAF

TAF VTBD 152300Z 1600/1706 08008KT 9999 FEW020 SCT100 BECMG 1611/1613 01005KT FEW030 BECMG 1618/1620 07010KT

Decode

Departure Runways

ID Width Length Bearing (true) Bearing (mag) Surface Threshold Offset Overrun Length
03L 197 ft / 60 m 12,186 ft / 3,714 m 28.55° 29.13° Asphalt 0 ft / 0 m 492 ft / 150 m
03R 148 ft / 45 m 11,520 ft / 3,511 m 28.50° 29.08° Asphalt 0 ft / 0 m 348 ft / 106 m
21L 148 ft / 45 m 11,520 ft / 3,511 m 208.50° 209.08° Asphalt 1,145 ft / 349 m 180 ft / 55 m
21R 197 ft / 60 m 12,186 ft / 3,714 m 208.55° 209.13° Asphalt 0 ft / 0 m 492 ft / 150 m

VTUQ

Details ICAO VTUQ (NAK)
Name Nakhon Ratchasima
Region Thailand
Timezone Asia/Bangkok (UTC+7.0)
Stats Elevation 765 ft / 233 m (AMSL)
Location 14.949496° 102.312737°
Runways 1
Magnetic Variation 0.681° W

METAR

VTUQ 160500Z 05011KT 340V090 9999 FEW025 SCT035 30/20 Q1016 NOSIG

Decode

TAF

TAF VTUQ 152300Z 1600/1624 05006KT 7000 FEW025 BECMG 1602/1606 02010KT 9000

Decode

Destination Runways

ID Width Length Bearing (true) Bearing (mag) Surface Threshold Offset Overrun Length
06 148 ft / 45 m 6,896 ft / 2,102 m 61.18° 61.86° Asphalt 0 ft / 0 m 197 ft / 60 m
24 148 ft / 45 m 6,896 ft / 2,102 m 241.19° 241.87° Asphalt 0 ft / 0 m 197 ft / 60 m

Approach Navaids

Runway Type Ident Frequency Range Bearing (true) Bearing (mag) Slope Elevation
06 Localiser INKR 109.70 MHz 18 nm / 33 km 61.19° 61.87° - 732 ft / 223 m (AMSL)
06 Glidescope INKR 109.70 MHz 10 nm / 19 km 61.19° 61.87° 3.00° 765 ft / 233 m (AMSL)
06 DME INKR 109.70 MHz 18 nm / 33 km - - - 732 ft / 223 m (AMSL)

Popular Alternatives